createdAt,value
2022-08-11T00:02:26.126Z,25.84
2022-08-11T00:04:52.470Z,25.90
2022-08-11T00:07:19.463Z,25.82
2022-08-11T00:09:45.772Z,25.81
2022-08-11T00:12:12.087Z,25.80
2022-08-11T00:14:38.402Z,25.84
2022-08-11T00:17:04.736Z,25.77
2022-08-11T00:20:12.714Z,25.80
2022-08-11T00:22:17.334Z,25.74
2022-08-11T00:24:53.560Z,25.72
2022-08-11T00:27:21.368Z,25.69
2022-08-11T00:29:51.814Z,25.74
2022-08-11T00:32:18.322Z,25.68
2022-08-11T00:34:44.632Z,25.68
2022-08-11T00:37:10.944Z,25.73
2022-08-11T00:39:37.286Z,25.71
2022-08-11T00:42:03.641Z,25.74
2022-08-11T00:44:29.974Z,25.67
2022-08-11T00:46:56.855Z,25.65
2022-08-11T00:49:23.168Z,25.69
2022-08-11T00:52:03.880Z,25.66
2022-08-11T00:54:33.128Z,25.56
2022-08-11T00:56:59.657Z,25.54
2022-08-11T00:59:35.104Z,25.59
2022-08-11T01:02:02.185Z,25.57
2022-08-11T01:04:28.502Z,25.59
2022-08-11T01:06:54.831Z,25.50
2022-08-11T01:09:22.271Z,25.55
2022-08-11T01:11:56.042Z,25.58
2022-08-11T01:14:34.246Z,25.48
2022-08-11T01:17:00.964Z,25.43
2022-08-11T01:19:27.287Z,25.47
2022-08-11T01:21:53.605Z,25.43
2022-08-11T01:24:21.444Z,25.41
2022-08-11T01:26:47.757Z,25.47
2022-08-11T01:29:14.068Z,25.41
2022-08-11T01:31:40.389Z,25.55
2022-08-11T01:34:06.708Z,25.46
2022-08-11T01:36:33.011Z,25.46
2022-08-11T01:38:59.323Z,25.47
2022-08-11T01:41:25.632Z,25.34
2022-08-11T01:43:51.940Z,25.40
2022-08-11T01:46:18.247Z,25.27
2022-08-11T01:48:44.566Z,25.34
2022-08-11T01:51:14.869Z,25.34
2022-08-11T01:53:43.659Z,25.29
2022-08-11T01:56:09.976Z,25.25
2022-08-11T01:58:44.106Z,25.22
2022-08-11T02:01:10.821Z,25.29
2022-08-11T02:03:37.181Z,25.29
2022-08-11T02:06:03.497Z,25.21
2022-08-11T02:08:33.084Z,25.28
2022-08-11T02:10:59.973Z,25.30
2022-08-11T02:13:36.654Z,25.30
2022-08-11T02:16:03.247Z,25.20
2022-08-11T02:18:29.553Z,25.19
2022-08-11T02:20:55.865Z,25.20
2022-08-11T02:23:41.090Z,25.23
2022-08-11T02:26:08.474Z,25.24
2022-08-11T02:28:38.896Z,25.16
2022-08-11T02:31:15.573Z,25.22
2022-08-11T02:33:58.905Z,25.18
2022-08-11T02:36:25.319Z,25.14
2022-08-11T02:38:51.659Z,25.13
2022-08-11T02:41:17.976Z,25.30
2022-08-11T02:43:46.077Z,25.30
2022-08-11T02:46:18.396Z,25.30
2022-08-11T02:48:44.973Z,25.32
2022-08-11T02:51:11.329Z,25.35
2022-08-11T02:53:37.645Z,25.36
2022-08-11T02:56:03.974Z,25.33
2022-08-11T02:58:30.294Z,25.29
2022-08-11T03:00:56.658Z,25.26
2022-08-11T03:03:23.021Z,25.21
2022-08-11T03:05:49.385Z,25.28
2022-08-11T03:08:19.243Z,25.21
2022-08-11T03:10:45.604Z,25.15
2022-08-11T03:13:11.967Z,25.20
2022-08-11T03:15:42.001Z,25.23
2022-08-11T03:18:11.005Z,25.24
2022-08-11T03:20:38.407Z,25.28
2022-08-11T03:23:05.679Z,25.17
2022-08-11T03:25:46.545Z,25.09
2022-08-11T03:28:12.917Z,24.99
2022-08-11T03:30:39.275Z,24.96
2022-08-11T03:33:05.655Z,25.07
2022-08-11T03:35:32.009Z,25.05
2022-08-11T03:37:58.398Z,25.06
2022-08-11T03:40:24.763Z,25.17
2022-08-11T03:42:51.140Z,25.20
2022-08-11T03:45:18.276Z,25.17
2022-08-11T03:47:52.298Z,25.18
2022-08-11T03:50:21.813Z,25.07
2022-08-11T03:52:48.171Z,25.09
2022-08-11T03:55:14.525Z,25.12
2022-08-11T03:57:40.885Z,25.00
2022-08-11T04:00:07.237Z,25.00
2022-08-11T04:02:33.606Z,25.00
2022-08-11T04:04:59.970Z,24.95
2022-08-11T04:07:26.515Z,24.98
2022-08-11T04:09:52.889Z,24.85
2022-08-11T04:12:35.420Z,24.82
2022-08-11T04:15:03.198Z,24.76
2022-08-11T04:17:29.561Z,24.79
2022-08-11T04:19:55.956Z,24.81
2022-08-11T04:22:22.326Z,24.77
2022-08-11T04:24:50.570Z,24.78
2022-08-11T04:27:17.121Z,24.73
2022-08-11T04:30:04.929Z,24.76
2022-08-11T04:32:31.707Z,24.77
2022-08-11T04:34:58.080Z,24.58
2022-08-11T04:37:24.454Z,24.78
2022-08-11T04:39:50.864Z,24.87
2022-08-11T04:42:17.237Z,24.87
2022-08-11T04:44:43.609Z,24.83
2022-08-11T04:47:09.960Z,24.98
2022-08-11T04:49:36.317Z,24.95
2022-08-11T04:52:02.677Z,24.87
2022-08-11T04:54:29.042Z,24.91
2022-08-11T04:56:55.410Z,24.81
2022-08-11T04:59:21.777Z,24.82
2022-08-11T05:01:48.187Z,24.79
2022-08-11T05:04:14.600Z,24.78
2022-08-11T05:06:40.962Z,25.01
2022-08-11T05:09:07.335Z,25.07
2022-08-11T05:11:33.706Z,25.16
2022-08-11T05:14:00.120Z,25.30
2022-08-11T05:16:26.486Z,25.40
2022-08-11T05:18:52.906Z,25.40
2022-08-11T05:21:19.261Z,25.50
2022-08-11T05:23:45.628Z,25.59
2022-08-11T05:26:46.974Z,25.59
2022-08-11T05:28:58.329Z,25.65
2022-08-11T05:31:24.713Z,25.72
2022-08-11T05:33:51.080Z,25.72
2022-08-11T05:36:17.453Z,25.75
2022-08-11T05:38:43.814Z,25.77
2022-08-11T05:41:10.177Z,25.76
2022-08-11T05:43:36.555Z,25.82
2022-08-11T05:46:06.226Z,25.79
2022-08-11T05:48:34.526Z,25.80
2022-08-11T05:51:00.950Z,25.85
2022-08-11T05:53:45.905Z,25.83
2022-08-11T05:56:12.825Z,25.85
2022-08-11T05:58:42.412Z,25.87
2022-08-11T06:01:09.416Z,25.88
2022-08-11T06:03:35.834Z,25.87
2022-08-11T06:06:02.214Z,25.94
2022-08-11T06:08:28.587Z,25.96
2022-08-11T06:10:54.944Z,25.95
2022-08-11T06:13:21.326Z,25.94
2022-08-11T06:15:47.688Z,25.92
2022-08-11T06:18:14.048Z,25.95
2022-08-11T06:20:40.429Z,25.99
2022-08-11T06:23:06.803Z,25.98
2022-08-11T06:25:33.191Z,25.99
2022-08-11T06:27:59.578Z,25.95
2022-08-11T06:30:25.974Z,25.90
2022-08-11T06:32:52.401Z,25.95
2022-08-11T06:35:18.767Z,25.98
2022-08-11T06:37:45.129Z,26.03
2022-08-11T06:40:11.517Z,26.05
2022-08-11T06:42:38.009Z,26.04
2022-08-11T06:45:04.508Z,26.04
2022-08-11T06:47:30.878Z,26.00
2022-08-11T06:49:57.249Z,26.01
2022-08-11T06:52:35.741Z,25.99
2022-08-11T06:55:02.554Z,26.06
2022-08-11T06:57:30.473Z,26.00
2022-08-11T06:59:57.486Z,26.00
2022-08-11T07:02:29.155Z,26.02
2022-08-11T07:04:57.376Z,26.04
2022-08-11T07:07:23.749Z,26.10
2022-08-11T07:09:50.117Z,26.09
2022-08-11T07:12:16.484Z,26.12
2022-08-11T07:14:42.864Z,26.14
2022-08-11T07:17:09.228Z,26.17
2022-08-11T07:19:35.606Z,26.23
2022-08-11T07:22:04.027Z,26.17
2022-08-11T07:24:58.646Z,26.15
2022-08-11T07:27:16.931Z,26.14
2022-08-11T07:29:43.305Z,26.18
2022-08-11T07:32:09.663Z,26.15
2022-08-11T07:34:36.034Z,26.21
2022-08-11T07:37:02.466Z,26.23
2022-08-11T07:39:28.928Z,26.27
2022-08-11T07:41:55.334Z,26.24
2022-08-11T07:44:21.736Z,26.26
2022-08-11T07:46:48.102Z,26.27
2022-08-11T07:49:14.470Z,26.31
2022-08-11T07:51:40.836Z,26.27
2022-08-11T07:54:16.503Z,26.31
2022-08-11T07:56:54.861Z,26.38
2022-08-11T07:59:22.047Z,26.33
2022-08-11T08:02:08.435Z,26.34
2022-08-11T08:04:34.824Z,26.36
2022-08-11T08:07:01.192Z,26.40
2022-08-11T08:09:27.550Z,26.45
2022-08-11T08:11:53.920Z,26.45
2022-08-11T08:14:20.288Z,26.42
2022-08-11T08:16:46.651Z,26.43
2022-08-11T08:19:13.005Z,26.43
2022-08-11T08:21:39.377Z,26.42
2022-08-11T08:24:05.745Z,26.40
2022-08-11T08:26:32.113Z,26.47
2022-08-11T08:28:58.490Z,26.43
2022-08-11T08:31:24.856Z,26.41
2022-08-11T08:33:51.213Z,26.44
2022-08-11T08:36:17.571Z,26.48
2022-08-11T08:38:43.957Z,26.46
2022-08-11T08:41:10.329Z,26.46
2022-08-11T08:43:48.515Z,26.50
2022-08-11T08:46:15.880Z,26.47
2022-08-11T08:48:42.259Z,26.45
2022-08-11T08:51:08.619Z,26.49
2022-08-11T08:53:34.974Z,26.53
2022-08-11T08:56:01.346Z,26.51
2022-08-11T08:58:27.695Z,26.53
2022-08-11T09:00:54.123Z,26.57
2022-08-11T09:03:41.073Z,26.55
2022-08-11T09:06:06.884Z,26.54
2022-08-11T09:08:33.244Z,26.63
2022-08-11T09:10:59.605Z,26.55
2022-08-11T09:13:25.976Z,26.61
2022-08-11T09:15:56.255Z,26.58
2022-08-11T09:18:22.923Z,26.60
2022-08-11T09:20:49.292Z,26.61
2022-08-11T09:26:02.022Z,26.59
2022-08-11T09:28:28.374Z,26.57
2022-08-11T09:30:54.726Z,26.60
2022-08-11T09:33:21.098Z,26.58
2022-08-11T09:35:47.480Z,26.60
2022-08-11T09:38:13.837Z,26.67
2022-08-11T09:40:40.203Z,26.60
2022-08-11T09:43:06.936Z,26.61
2022-08-11T09:45:39.951Z,26.60
2022-08-11T09:48:06.711Z,26.62
2022-08-11T09:50:33.072Z,26.65
2022-08-11T09:53:36.827Z,26.60
2022-08-11T09:55:46.640Z,26.62
2022-08-11T09:58:13.018Z,26.64
2022-08-11T10:00:59.394Z,26.60
2022-08-11T10:03:25.803Z,26.60
2022-08-11T10:05:52.164Z,26.60
2022-08-11T10:08:18.539Z,26.58
2022-08-11T10:10:44.906Z,26.61
2022-08-11T10:14:30.090Z,26.59
2022-08-11T10:16:00.058Z,26.59
2022-08-11T10:18:41.849Z,26.60
2022-08-11T10:21:08.205Z,26.62
2022-08-11T10:23:34.561Z,26.60
2022-08-11T10:26:20.919Z,26.58
2022-08-11T10:29:11.669Z,26.63
2022-08-11T10:31:45.141Z,26.59
2022-08-11T10:34:19.979Z,26.60
2022-08-11T10:36:49.170Z,26.60
2022-08-11T10:39:15.555Z,26.62
2022-08-11T10:42:07.373Z,26.62
2022-08-11T10:44:30.892Z,26.62
2022-08-11T10:46:57.255Z,26.62
2022-08-11T10:49:23.628Z,26.61
2022-08-11T10:51:52.149Z,26.64
2022-08-11T10:54:20.359Z,26.63
2022-08-11T10:56:46.730Z,26.63
2022-08-11T10:59:13.103Z,26.64
2022-08-11T11:01:41.974Z,26.64
2022-08-11T11:04:08.371Z,26.63
2022-08-11T11:06:34.731Z,26.61
2022-08-11T11:09:04.134Z,26.63
2022-08-11T11:11:31.059Z,26.63
2022-08-11T11:13:57.458Z,26.64
2022-08-11T11:16:24.867Z,26.63
2022-08-11T11:19:00.846Z,26.62
2022-08-11T11:21:27.646Z,26.64
2022-08-11T11:23:54.012Z,26.63
2022-08-11T11:26:27.434Z,26.63
2022-08-11T11:28:54.293Z,26.63
2022-08-11T11:31:21.259Z,26.62
2022-08-11T11:34:06.146Z,26.64
2022-08-11T11:36:33.965Z,26.66
2022-08-11T11:39:00.333Z,26.64
2022-08-11T11:41:26.683Z,26.65
2022-08-11T11:43:53.035Z,26.61
2022-08-11T11:46:19.392Z,26.62
2022-08-11T11:48:45.741Z,26.64
2022-08-11T11:51:12.107Z,26.62
2022-08-11T11:53:38.469Z,26.64
2022-08-11T11:56:04.821Z,26.64
2022-08-11T11:58:31.190Z,26.65
2022-08-11T12:00:57.556Z,26.65
2022-08-11T12:03:24.005Z,26.63
2022-08-11T12:05:50.394Z,26.63
2022-08-11T12:08:16.752Z,26.63
2022-08-11T12:10:43.121Z,26.66
2022-08-11T12:13:09.487Z,26.67
2022-08-11T12:16:34.483Z,26.65
2022-08-11T12:18:23.249Z,26.67
2022-08-11T12:20:49.622Z,26.67
2022-08-11T12:23:15.989Z,26.64
2022-08-11T12:25:42.353Z,26.66
2022-08-11T12:28:08.718Z,26.64
2022-08-11T12:30:35.086Z,26.66
2022-08-11T12:33:01.535Z,26.66
2022-08-11T12:35:27.910Z,26.68
2022-08-11T12:37:58.775Z,26.68
2022-08-11T12:40:48.816Z,26.67
2022-08-11T12:43:21.557Z,26.67
2022-08-11T12:45:48.713Z,26.70
2022-08-11T12:49:00.641Z,26.71
2022-08-11T12:51:01.412Z,26.71
2022-08-11T12:53:27.777Z,26.71
2022-08-11T12:56:07.418Z,26.71
2022-08-11T12:58:34.052Z,26.72
2022-08-11T13:01:00.522Z,26.73
2022-08-11T13:03:26.957Z,26.74
2022-08-11T13:05:53.317Z,26.74
2022-08-11T13:08:19.681Z,26.72
2022-08-11T13:10:46.046Z,26.73
2022-08-11T13:13:52.817Z,26.77
2022-08-11T13:15:58.752Z,26.77
2022-08-11T13:18:25.112Z,26.76
2022-08-11T13:20:51.478Z,26.77
2022-08-11T13:23:17.849Z,26.77
2022-08-11T13:25:44.201Z,26.79
2022-08-11T13:28:10.566Z,26.80
2022-08-11T13:30:40.374Z,26.79
2022-08-11T13:33:08.460Z,26.80
2022-08-11T13:35:34.825Z,26.81
2022-08-11T13:38:18.533Z,26.82
2022-08-11T13:40:55.805Z,26.83
2022-08-11T13:43:22.536Z,26.84
2022-08-11T13:45:48.902Z,26.85
2022-08-11T13:48:15.262Z,26.86
2022-08-11T13:50:41.638Z,26.84
2022-08-11T13:53:08.016Z,26.88
2022-08-11T13:55:51.489Z,26.90
2022-08-11T13:58:39.919Z,26.88
2022-08-11T14:02:03.111Z,26.90
2022-08-11T14:04:30.017Z,26.87
2022-08-11T14:06:37.967Z,26.89
2022-08-11T14:09:04.323Z,26.89
2022-08-11T14:12:21.692Z,26.92
2022-08-11T14:14:17.026Z,26.89
2022-08-11T14:16:43.398Z,26.92
2022-08-11T14:19:09.753Z,26.90
2022-08-11T14:21:36.128Z,26.93
2022-08-11T14:24:02.493Z,26.89
2022-08-11T14:26:28.877Z,26.91
2022-08-11T14:28:55.263Z,26.93
2022-08-11T14:31:21.631Z,26.92
2022-08-11T14:34:00.913Z,26.91
2022-08-11T14:36:28.304Z,26.92
2022-08-11T14:38:54.668Z,26.94
2022-08-11T14:41:21.026Z,26.92
2022-08-11T14:44:13.192Z,26.93
2022-08-11T14:46:33.742Z,26.93
2022-08-11T14:49:00.121Z,26.95
2022-08-11T14:51:26.477Z,26.91
2022-08-11T14:53:58.750Z,26.95
2022-08-11T14:56:25.395Z,26.97
2022-08-11T14:58:51.768Z,26.95
2022-08-11T15:01:18.243Z,26.93
2022-08-11T15:04:34.099Z,26.92
2022-08-11T15:06:31.009Z,26.93
2022-08-11T15:08:57.388Z,26.93
2022-08-11T15:11:23.749Z,26.90
2022-08-11T15:13:50.117Z,26.92
2022-08-11T15:16:16.480Z,26.91
2022-08-11T15:18:42.842Z,26.94
2022-08-11T15:21:09.209Z,26.89
2022-08-11T15:23:35.569Z,26.90
2022-08-11T15:26:01.926Z,26.91
2022-08-11T15:28:28.275Z,26.92
2022-08-11T15:30:54.666Z,26.90
2022-08-11T15:33:21.029Z,26.93
2022-08-11T15:35:47.382Z,26.90
2022-08-11T15:38:13.737Z,26.88
2022-08-11T15:40:40.159Z,26.87
2022-08-11T15:43:12.724Z,26.88
2022-08-11T15:45:39.305Z,26.85
2022-08-11T15:48:07.972Z,26.86
2022-08-11T15:50:36.984Z,26.86
2022-08-11T15:53:03.345Z,26.83
2022-08-11T15:55:29.707Z,26.84
2022-08-11T15:57:56.087Z,26.84
2022-08-11T16:00:24.553Z,26.83
2022-08-11T16:02:50.999Z,26.82
2022-08-11T16:05:45.033Z,26.82
2022-08-11T16:08:03.701Z,26.82
2022-08-11T16:10:30.062Z,26.81
2022-08-11T16:13:00.177Z,26.80
2022-08-11T16:15:26.542Z,26.81
2022-08-11T16:17:52.918Z,26.83
2022-08-11T16:20:19.283Z,26.82
2022-08-11T16:22:55.140Z,26.80
2022-08-11T16:25:58.084Z,26.82
2022-08-11T16:28:14.622Z,26.83
2022-08-11T16:30:41.059Z,26.83
2022-08-11T16:33:48.104Z,26.83
2022-08-11T16:35:53.762Z,26.82
2022-08-11T16:38:20.140Z,26.84
2022-08-11T16:40:46.514Z,26.88
2022-08-11T16:43:12.888Z,26.84
2022-08-11T16:45:39.254Z,26.84
2022-08-11T16:48:32.503Z,26.83
2022-08-11T16:50:51.964Z,26.86
2022-08-11T16:53:18.318Z,26.85
2022-08-11T16:55:52.736Z,26.85
2022-08-11T16:58:19.364Z,26.88
2022-08-11T17:00:46.092Z,26.87
2022-08-11T17:03:12.517Z,26.83
2022-08-11T17:05:54.208Z,26.88
2022-08-11T17:08:22.764Z,26.86
2022-08-11T17:10:54.790Z,26.84
2022-08-11T17:13:24.054Z,26.84
2022-08-11T17:15:50.927Z,26.82
2022-08-11T17:18:17.442Z,26.85
2022-08-11T17:20:44.398Z,26.87
2022-08-11T17:23:13.318Z,26.85
2022-08-11T17:26:03.717Z,26.95
2022-08-11T17:28:26.266Z,26.84
2022-08-11T17:30:52.633Z,26.94
2022-08-11T17:33:18.983Z,26.88
2022-08-11T17:35:45.342Z,26.85
2022-08-11T17:38:11.715Z,26.82
2022-08-11T17:40:38.085Z,26.77
2022-08-11T17:43:04.472Z,26.82
2022-08-11T17:45:30.843Z,26.79
2022-08-11T17:47:57.208Z,26.78
2022-08-11T17:50:23.564Z,26.72
2022-08-11T17:52:49.940Z,26.82
2022-08-11T17:55:16.309Z,26.97
2022-08-11T17:58:02.669Z,26.89
2022-08-11T18:00:29.028Z,26.88
2022-08-11T18:02:55.391Z,26.82
2022-08-11T18:05:21.746Z,26.83
2022-08-11T18:07:48.117Z,26.83
2022-08-11T18:10:14.486Z,26.84
2022-08-11T18:12:40.831Z,26.83
2022-08-11T18:15:07.209Z,26.82
2022-08-11T18:17:33.659Z,26.83
2022-08-11T18:20:00.114Z,26.84
2022-08-11T18:25:10.453Z,26.88
2022-08-11T18:27:36.825Z,26.95
2022-08-11T18:30:03.199Z,26.97
2022-08-11T18:32:46.084Z,26.91
2022-08-11T18:35:15.816Z,26.81
2022-08-11T18:37:42.358Z,26.79
2022-08-11T18:40:08.833Z,26.78
2022-08-11T18:42:35.195Z,26.81
2022-08-11T18:45:01.549Z,26.72
2022-08-11T18:47:28.916Z,26.86
2022-08-11T18:50:02.569Z,26.88
2022-08-11T18:52:31.440Z,26.89
2022-08-11T18:54:57.805Z,26.88
2022-08-11T18:57:24.200Z,27.09
2022-08-11T18:59:50.588Z,27.08
2022-08-11T19:02:16.959Z,26.93
2022-08-11T19:04:43.326Z,26.92
2022-08-11T19:07:09.698Z,26.92
2022-08-11T19:09:36.064Z,26.87
2022-08-11T19:12:02.429Z,26.87
2022-08-11T19:14:28.825Z,26.88
2022-08-11T19:16:55.209Z,26.85
2022-08-11T19:19:21.573Z,26.84
2022-08-11T19:21:47.937Z,26.88
2022-08-11T19:24:14.323Z,26.86
2022-08-11T19:26:40.688Z,26.91
2022-08-11T19:29:07.086Z,26.93
2022-08-11T19:31:33.451Z,26.83
2022-08-11T19:34:10.023Z,26.87
2022-08-11T19:36:37.192Z,26.87
2022-08-11T19:39:03.563Z,26.91
2022-08-11T19:41:56.426Z,26.89
2022-08-11T19:44:16.769Z,26.69
2022-08-11T19:46:43.173Z,26.74
2022-08-11T19:49:09.531Z,26.80
2022-08-11T19:51:35.929Z,26.80
2022-08-11T19:54:02.370Z,26.78
2022-08-11T19:56:28.734Z,26.74
2022-08-11T19:58:55.092Z,26.84
2022-08-11T20:01:21.536Z,26.78
2022-08-11T20:03:47.911Z,26.74
2022-08-11T20:06:14.289Z,26.74
2022-08-11T20:08:40.656Z,26.70
2022-08-11T20:11:07.029Z,26.74
2022-08-11T20:13:33.386Z,26.74
2022-08-11T20:16:00.764Z,26.73
2022-08-11T20:18:27.134Z,26.75
2022-08-11T20:20:53.502Z,26.72
2022-08-11T20:23:19.955Z,26.81
2022-08-11T20:25:46.482Z,26.81
2022-08-11T20:28:12.856Z,26.79
2022-08-11T20:30:39.209Z,26.75
2022-08-11T20:33:05.557Z,26.73
2022-08-11T20:35:31.931Z,26.69
2022-08-11T20:37:58.285Z,26.69
2022-08-11T20:40:24.642Z,26.70
2022-08-11T20:42:50.993Z,26.76
2022-08-11T20:45:17.344Z,26.74
2022-08-11T20:47:58.913Z,26.71
2022-08-11T20:50:26.989Z,26.72
2022-08-11T20:52:55.115Z,26.70
2022-08-11T20:55:26.147Z,26.60
2022-08-11T20:58:08.172Z,26.70
2022-08-11T21:00:41.580Z,26.76
2022-08-11T21:03:10.466Z,26.82
2022-08-11T21:06:10.238Z,26.85
2022-08-11T21:08:25.416Z,26.77
2022-08-11T21:10:52.349Z,26.71
2022-08-11T21:13:25.250Z,26.71
2022-08-11T21:16:03.097Z,26.69
2022-08-11T21:18:29.847Z,26.68
2022-08-11T21:20:56.219Z,26.71
2022-08-11T21:23:24.101Z,26.68
2022-08-11T21:25:50.891Z,26.66
2022-08-11T21:28:17.276Z,26.60
2022-08-11T21:30:43.629Z,26.63
2022-08-11T21:33:09.999Z,26.62
2022-08-11T21:35:36.361Z,26.59
2022-08-11T21:38:11.494Z,26.53
2022-08-11T21:40:37.863Z,26.58
2022-08-11T21:43:04.224Z,26.57
2022-08-11T21:45:30.598Z,26.58
2022-08-11T21:48:01.003Z,26.58
2022-08-11T21:50:27.849Z,26.57
2022-08-11T21:52:54.244Z,26.51
2022-08-11T21:55:21.405Z,26.57
2022-08-11T21:57:50.321Z,26.54
2022-08-11T22:00:17.013Z,26.49
2022-08-11T22:02:44.175Z,26.45
2022-08-11T22:05:18.603Z,26.42
2022-08-11T22:07:44.973Z,26.46
2022-08-11T22:10:37.663Z,26.51
2022-08-11T22:12:57.670Z,26.51
2022-08-11T22:15:24.037Z,26.42
2022-08-11T22:17:53.628Z,26.38
2022-08-11T22:20:22.342Z,26.44
2022-08-11T22:22:53.122Z,26.45
2022-08-11T22:25:20.001Z,26.46
2022-08-11T22:27:47.086Z,26.38
2022-08-11T22:30:13.457Z,26.42
2022-08-11T22:32:39.934Z,26.38
2022-08-11T22:35:06.444Z,26.33
2022-08-11T22:37:32.792Z,26.39
2022-08-11T22:40:01.883Z,26.30
2022-08-11T22:42:33.281Z,26.32
2022-08-11T22:45:00.397Z,26.32
2022-08-11T22:47:27.395Z,26.34
2022-08-11T22:50:02.758Z,26.36
2022-08-11T22:52:29.130Z,26.37
2022-08-11T22:54:55.481Z,26.38
2022-08-11T22:57:21.840Z,26.30
2022-08-11T22:59:48.208Z,26.30
2022-08-11T23:02:14.578Z,26.33
2022-08-11T23:04:40.941Z,26.30
2022-08-11T23:07:07.291Z,26.31
2022-08-11T23:09:33.658Z,26.31
2022-08-11T23:12:06.694Z,26.32
2022-08-11T23:14:36.428Z,26.34
2022-08-11T23:17:02.798Z,26.27
2022-08-11T23:20:07.021Z,26.29
2022-08-11T23:22:15.500Z,26.34
2022-08-11T23:24:42.050Z,26.44
2022-08-11T23:27:08.407Z,26.38
2022-08-11T23:29:34.766Z,26.31
2022-08-11T23:32:01.120Z,26.35
2022-08-11T23:34:41.490Z,26.36
2022-08-11T23:37:13.822Z,26.41
2022-08-11T23:39:40.255Z,26.31
2022-08-11T23:42:06.689Z,26.34
2022-08-11T23:44:33.058Z,26.40
2022-08-11T23:46:59.420Z,26.32
2022-08-11T23:49:25.781Z,26.27
2022-08-11T23:51:52.140Z,26.30
2022-08-11T23:54:18.496Z,26.27
2022-08-11T23:56:44.859Z,26.36
2022-08-11T23:59:11.228Z,26.27
